createdAt,value
2023-05-09T00:00:37.147Z,3.42
2023-05-09T00:03:22.644Z,3.38
2023-05-09T00:06:09.060Z,3.70
2023-05-09T00:08:55.250Z,4.30
2023-05-09T00:11:40.984Z,3.67
2023-05-09T00:14:26.290Z,3.90
2023-05-09T00:17:14.598Z,3.40
2023-05-09T00:20:01.660Z,4.03
2023-05-09T00:22:47.050Z,4.22
2023-05-09T00:25:32.670Z,4.53
2023-05-09T00:28:18.424Z,3.47
2023-05-09T00:31:04.500Z,3.63
2023-05-09T00:33:49.866Z,4.30
2023-05-09T00:36:35.312Z,3.45
2023-05-09T00:39:20.935Z,4.05
2023-05-09T00:42:06.753Z,3.22
2023-05-09T00:44:52.247Z,4.05
2023-05-09T00:47:38.545Z,4.40
2023-05-09T00:50:24.792Z,3.63
2023-05-09T00:53:10.516Z,4.03
2023-05-09T00:55:57.823Z,3.90
2023-05-09T00:58:44.123Z,3.85
2023-05-09T01:01:29.848Z,4.28
2023-05-09T01:04:15.463Z,4.63
2023-05-09T01:07:09.551Z,3.17
2023-05-09T01:10:19.882Z,3.90
2023-05-09T01:13:20.501Z,3.95
2023-05-09T01:16:28.109Z,4.25
2023-05-09T01:19:38.184Z,3.50
2023-05-09T01:22:30.356Z,3.38
2023-05-09T01:28:32.226Z,3.72
2023-05-09T01:31:17.581Z,2.65
2023-05-09T01:34:05.844Z,3.85
2023-05-09T01:36:52.427Z,4.10
2023-05-09T01:39:41.400Z,3.22
2023-05-09T01:42:31.194Z,3.42
2023-05-09T01:45:18.616Z,3.20
2023-05-09T01:48:04.720Z,3.17
2023-05-09T01:50:50.464Z,3.05
2023-05-09T01:53:36.378Z,2.92
2023-05-09T01:56:23.663Z,3.88
2023-05-09T01:59:13.657Z,4.05
2023-05-09T02:01:59.665Z,3.50
2023-05-09T02:04:46.773Z,3.45
2023-05-09T02:07:33.333Z,3.05
2023-05-09T02:10:21.351Z,3.88
2023-05-09T02:13:07.198Z,3.85
2023-05-09T02:15:53.048Z,3.60
2023-05-09T02:18:38.502Z,3.90
2023-05-09T02:21:25.886Z,3.30
2023-05-09T02:24:12.429Z,4.63
2023-05-09T02:26:57.874Z,3.83
2023-05-09T02:29:49.477Z,3.95
2023-05-09T02:32:38.839Z,3.30
2023-05-09T02:35:27.480Z,2.97
2023-05-09T02:38:14.505Z,3.50
2023-05-09T02:40:59.914Z,3.28
2023-05-09T02:43:46.001Z,3.35
2023-05-09T02:46:31.913Z,3.20
2023-05-09T02:49:31.513Z,3.85
2023-05-09T02:52:18.724Z,3.20
2023-05-09T02:55:04.784Z,4.32
2023-05-09T02:58:05.355Z,3.40
2023-05-09T03:00:58.382Z,3.42
2023-05-09T03:03:44.266Z,4.22
2023-05-09T03:06:30.073Z,2.60
2023-05-09T03:09:15.556Z,2.88
2023-05-09T03:12:01.130Z,4.53
2023-05-09T03:14:47.081Z,3.03
2023-05-09T03:17:32.511Z,3.13
2023-05-09T03:20:18.258Z,3.33
2023-05-09T03:23:03.961Z,3.45
2023-05-09T03:25:50.424Z,3.92
2023-05-09T03:28:36.208Z,3.95
2023-05-09T03:31:23.691Z,3.38
2023-05-09T03:34:15.066Z,3.75
2023-05-09T03:37:01.964Z,3.58
2023-05-09T03:39:48.799Z,2.95
2023-05-09T03:42:34.818Z,2.40
2023-05-09T03:45:22.244Z,4.32
2023-05-09T03:48:09.822Z,2.67
2023-05-09T03:53:48.047Z,3.42
2023-05-09T03:56:34.158Z,3.00
2023-05-09T03:59:20.842Z,3.03
2023-05-09T04:02:06.468Z,3.35
2023-05-09T04:04:52.823Z,3.03
2023-05-09T04:07:40.521Z,3.13
2023-05-09T04:10:26.222Z,2.72
2023-05-09T04:13:15.402Z,3.60
2023-05-09T04:16:01.817Z,3.35
2023-05-09T04:18:49.897Z,3.65
2023-05-09T04:21:35.318Z,3.30
2023-05-09T04:24:22.219Z,3.25
2023-05-09T04:27:08.569Z,3.50
2023-05-09T04:29:55.159Z,4.32
2023-05-09T04:32:45.666Z,3.50
2023-05-09T04:35:30.825Z,3.88
2023-05-09T04:38:16.785Z,2.65
2023-05-09T04:41:02.631Z,3.40
2023-05-09T04:43:48.161Z,2.70
2023-05-09T04:46:34.238Z,2.88
2023-05-09T04:49:19.854Z,3.83
2023-05-09T04:52:07.036Z,2.90
2023-05-09T04:54:52.504Z,3.28
2023-05-09T04:57:40.441Z,3.47
2023-05-09T05:00:26.228Z,3.13
2023-05-09T05:03:12.429Z,3.50
2023-05-09T05:05:58.108Z,3.65
2023-05-09T05:08:45.056Z,3.55
2023-05-09T05:11:30.381Z,3.63
2023-05-09T05:14:16.283Z,3.03
2023-05-09T05:17:02.206Z,3.13
2023-05-09T05:19:47.895Z,3.63
2023-05-09T05:22:35.969Z,3.72
2023-05-09T05:25:22.297Z,4.80
2023-05-09T05:28:10.093Z,3.80
2023-05-09T05:30:57.056Z,4.55
2023-05-09T05:33:42.482Z,3.20
2023-05-09T05:36:27.653Z,3.50
2023-05-09T05:39:13.200Z,2.25
2023-05-09T05:41:58.406Z,3.88
2023-05-09T05:44:43.975Z,4.18
2023-05-09T05:47:36.046Z,3.85
2023-05-09T05:50:22.068Z,2.90
2023-05-09T05:53:07.683Z,2.83
2023-05-09T05:55:53.956Z,2.83
2023-05-09T05:58:39.628Z,3.28
2023-05-09T06:01:26.414Z,3.03
2023-05-09T06:04:11.839Z,3.53
2023-05-09T06:06:57.162Z,3.65
2023-05-09T06:09:42.851Z,4.22
2023-05-09T06:12:28.822Z,3.28
2023-05-09T06:15:14.422Z,3.55
2023-05-09T06:18:03.977Z,3.88
2023-05-09T06:20:49.642Z,3.55
2023-05-09T06:23:38.033Z,3.20
2023-05-09T06:26:26.365Z,3.13
2023-05-09T06:29:11.915Z,4.95
2023-05-09T06:31:57.620Z,2.97
2023-05-09T06:34:43.430Z,3.53
2023-05-09T06:37:33.514Z,4.47
2023-05-09T06:40:19.292Z,4.28
2023-05-09T06:43:05.137Z,5.05
2023-05-09T06:45:50.761Z,4.43
2023-05-09T06:48:36.221Z,4.18
2023-05-09T06:51:21.923Z,5.03
2023-05-09T06:54:07.299Z,3.65
2023-05-09T06:56:52.808Z,3.15
2023-05-09T06:59:38.815Z,4.57
2023-05-09T07:02:24.219Z,3.45
2023-05-09T07:05:10.765Z,3.28
2023-05-09T07:07:57.003Z,3.58
2023-05-09T07:10:42.614Z,3.50
2023-05-09T07:13:28.048Z,3.80
2023-05-09T07:16:13.690Z,3.00
2023-05-09T07:18:59.410Z,3.63
2023-05-09T07:21:45.059Z,4.25
2023-05-09T07:24:30.611Z,4.03
2023-05-09T07:27:16.484Z,3.97
2023-05-09T07:30:06.180Z,3.72
2023-05-09T07:32:51.986Z,4.15
2023-05-09T07:35:37.328Z,3.65
2023-05-09T07:38:22.601Z,4.03
2023-05-09T07:41:08.145Z,3.63
2023-05-09T07:43:53.700Z,3.78
2023-05-09T07:46:40.984Z,4.05
2023-05-09T07:49:26.395Z,3.83
2023-05-09T07:52:11.828Z,3.15
2023-05-09T07:54:57.433Z,2.95
2023-05-09T07:57:43.300Z,3.22
2023-05-09T08:00:28.860Z,3.30
2023-05-09T08:03:14.385Z,2.75
2023-05-09T08:05:59.974Z,3.38
2023-05-09T08:08:45.749Z,3.83
2023-05-09T08:11:34.580Z,3.50
2023-05-09T08:14:19.962Z,3.80
2023-05-09T08:17:05.230Z,4.20
2023-05-09T08:19:50.603Z,3.38
2023-05-09T08:22:35.968Z,3.25
2023-05-09T08:25:21.464Z,3.38
2023-05-09T08:28:06.844Z,4.20
2023-05-09T08:30:52.367Z,3.85
2023-05-09T08:33:39.871Z,3.55
2023-05-09T08:36:26.936Z,4.55
2023-05-09T08:39:12.362Z,3.28
2023-05-09T08:41:59.794Z,4.00
2023-05-09T08:44:45.035Z,3.33
2023-05-09T08:47:30.475Z,3.85
2023-05-09T08:50:17.610Z,3.38
2023-05-09T08:53:03.593Z,3.58
2023-05-09T08:55:51.002Z,3.53
2023-05-09T08:58:37.176Z,3.75
2023-05-09T09:01:23.579Z,3.50
2023-05-09T09:04:11.985Z,3.15
2023-05-09T09:06:58.226Z,2.83
2023-05-09T09:09:49.193Z,3.33
2023-05-09T09:12:35.823Z,2.95
2023-05-09T09:15:22.940Z,2.90
2023-05-09T09:18:11.655Z,3.15
2023-05-09T09:21:03.409Z,2.35
2023-05-09T09:23:49.739Z,3.03
2023-05-09T09:26:35.197Z,3.22
2023-05-09T09:29:21.177Z,3.25
2023-05-09T09:32:07.443Z,3.20
2023-05-09T09:35:06.992Z,2.63
2023-05-09T09:38:01.730Z,2.80
2023-05-09T09:40:58.239Z,3.10
2023-05-09T09:43:46.305Z,2.17
2023-05-09T09:46:45.044Z,2.30
2023-05-09T09:49:30.397Z,3.05
2023-05-09T09:52:24.907Z,2.42
2023-05-09T09:55:11.275Z,2.50
2023-05-09T09:57:56.774Z,2.75
2023-05-09T10:00:42.187Z,2.95
2023-05-09T10:03:36.065Z,1.88
2023-05-09T10:06:21.476Z,2.33
2023-05-09T10:09:06.776Z,2.10
2023-05-09T10:11:53.279Z,1.90
2023-05-09T10:14:42.281Z,2.38
2023-05-09T10:17:31.357Z,2.45
2023-05-09T10:20:18.194Z,2.13
2023-05-09T10:23:04.472Z,2.20
2023-05-09T10:25:58.860Z,2.55
2023-05-09T10:28:49.179Z,1.70
2023-05-09T10:31:39.390Z,2.22
2023-05-09T10:34:26.369Z,2.58
2023-05-09T10:37:12.858Z,2.35
2023-05-09T10:40:01.744Z,2.20
2023-05-09T10:42:47.662Z,2.17
2023-05-09T10:45:34.210Z,2.13
2023-05-09T10:48:20.306Z,2.72
2023-05-09T10:51:06.560Z,2.17
2023-05-09T10:53:52.210Z,3.83
2023-05-09T10:56:39.933Z,2.50
2023-05-09T10:59:42.943Z,1.92
2023-05-09T11:02:32.922Z,1.90
2023-05-09T11:05:20.222Z,2.60
2023-05-09T11:08:26.286Z,1.60
2023-05-09T11:11:25.500Z,1.63
2023-05-09T11:14:38.576Z,1.98
2023-05-09T11:17:24.730Z,1.88
2023-05-09T11:20:10.520Z,1.83
2023-05-09T11:22:57.590Z,1.10
2023-05-09T11:25:46.594Z,1.20
2023-05-09T11:28:34.473Z,1.42
2023-05-09T11:31:20.207Z,1.67
2023-05-09T11:34:06.475Z,1.77
2023-05-09T11:37:07.875Z,1.95
2023-05-09T11:39:58.868Z,2.75
2023-05-09T11:42:50.078Z,3.38
2023-05-09T11:45:35.715Z,3.40
2023-05-09T11:48:22.828Z,2.90
2023-05-09T11:51:16.127Z,3.20
2023-05-09T11:54:01.687Z,3.08
2023-05-09T11:56:47.359Z,3.10
2023-05-09T11:59:36.674Z,3.17
2023-05-09T12:02:22.937Z,2.40
2023-05-09T12:05:10.639Z,2.50
2023-05-09T12:08:01.441Z,2.65
2023-05-09T12:10:47.717Z,3.25
2023-05-09T12:13:33.056Z,3.47
2023-05-09T12:16:19.906Z,3.25
2023-05-09T12:19:05.761Z,3.17
2023-05-09T12:21:59.063Z,2.75
2023-05-09T12:24:44.550Z,3.25
2023-05-09T12:27:30.193Z,2.95
2023-05-09T12:30:16.288Z,3.05
2023-05-09T12:33:01.803Z,2.95
2023-05-09T12:35:48.617Z,2.70
2023-05-09T12:38:34.569Z,2.92
2023-05-09T12:41:34.923Z,2.80
2023-05-09T12:44:25.101Z,2.80
2023-05-09T12:47:12.689Z,3.20
2023-05-09T12:49:59.433Z,2.63
2023-05-09T12:53:02.002Z,3.03
2023-05-09T12:55:48.672Z,3.53
2023-05-09T12:58:34.201Z,2.83
2023-05-09T13:01:21.356Z,2.78
2023-05-09T13:04:07.665Z,2.58
2023-05-09T13:06:58.707Z,2.17
2023-05-09T13:10:00.970Z,2.72
2023-05-09T13:12:48.537Z,2.85
2023-05-09T13:15:33.928Z,3.28
2023-05-09T13:18:20.305Z,2.63
2023-05-09T13:21:05.686Z,2.92
2023-05-09T13:23:52.184Z,2.35
2023-05-09T13:26:37.917Z,2.63
2023-05-09T13:29:23.287Z,2.72
2023-05-09T13:32:08.861Z,3.08
2023-05-09T13:34:54.571Z,2.75
2023-05-09T13:37:39.848Z,3.10
2023-05-09T13:40:25.468Z,2.65
2023-05-09T13:43:11.064Z,3.25
2023-05-09T13:45:56.581Z,2.75
2023-05-09T13:48:42.061Z,2.97
2023-05-09T13:51:29.317Z,3.00
2023-05-09T13:54:15.914Z,2.80
2023-05-09T13:57:05.139Z,2.33
2023-05-09T13:59:50.472Z,2.47
2023-05-09T14:02:36.038Z,2.70
2023-05-09T14:05:21.657Z,2.50
2023-05-09T14:08:08.238Z,1.98
2023-05-09T14:10:53.651Z,2.00
2023-05-09T14:13:38.795Z,2.35
2023-05-09T14:16:24.194Z,2.45
2023-05-09T14:19:09.591Z,2.63
2023-05-09T14:21:55.114Z,2.42
2023-05-09T14:24:40.924Z,2.65
2023-05-09T14:27:26.456Z,2.85
2023-05-09T14:30:13.072Z,2.25
2023-05-09T14:32:58.771Z,2.92
2023-05-09T14:35:44.039Z,3.35
2023-05-09T14:38:29.827Z,4.28
2023-05-09T14:41:15.378Z,2.97
2023-05-09T14:44:01.030Z,3.55
2023-05-09T14:46:46.362Z,2.95
2023-05-09T14:49:32.019Z,3.17
2023-05-09T14:52:17.783Z,3.38
2023-05-09T14:55:03.630Z,1.60
2023-05-09T14:57:49.846Z,1.77
2023-05-09T15:00:35.328Z,0.85
2023-05-09T15:03:20.688Z,0.90
2023-05-09T15:06:06.272Z,1.40
2023-05-09T15:08:52.279Z,1.02
2023-05-09T15:11:47.637Z,0.68
2023-05-09T15:14:34.106Z,1.33
2023-05-09T15:17:22.882Z,1.08
2023-05-09T15:20:08.868Z,0.90
2023-05-09T15:22:54.199Z,0.85
2023-05-09T15:25:42.865Z,1.10
2023-05-09T15:28:28.594Z,1.77
2023-05-09T15:31:14.575Z,1.25
2023-05-09T15:34:00.685Z,0.70
2023-05-09T15:36:46.373Z,1.45
2023-05-09T15:39:34.746Z,0.55
2023-05-09T15:42:20.282Z,0.93
2023-05-09T15:45:06.580Z,0.60
2023-05-09T15:47:52.154Z,1.05
2023-05-09T15:50:38.002Z,0.90
2023-05-09T15:53:23.488Z,0.90
2023-05-09T15:56:09.338Z,0.80
2023-05-09T15:58:55.076Z,0.70
2023-05-09T16:01:40.489Z,0.98
2023-05-09T16:04:26.107Z,0.93
2023-05-09T16:07:11.672Z,1.10
2023-05-09T16:09:57.154Z,0.85
2023-05-09T16:12:42.525Z,1.02
2023-05-09T16:15:27.974Z,0.65
2023-05-09T16:18:13.495Z,1.17
2023-05-09T16:20:59.685Z,1.20
2023-05-09T16:23:45.793Z,0.88
2023-05-09T16:26:31.689Z,1.23
2023-05-09T16:29:17.134Z,2.10
2023-05-09T16:32:03.082Z,1.02
2023-05-09T16:34:49.165Z,1.25
2023-05-09T16:37:35.656Z,0.98
2023-05-09T16:40:22.179Z,0.60
2023-05-09T16:43:07.528Z,0.70
2023-05-09T16:45:53.128Z,0.65
2023-05-09T16:48:38.448Z,0.73
2023-05-09T16:51:23.774Z,0.93
2023-05-09T16:54:09.585Z,0.65
2023-05-09T16:56:55.110Z,0.80
2023-05-09T16:59:40.711Z,0.88
2023-05-09T17:02:26.294Z,0.70
2023-05-09T17:05:11.622Z,0.60
2023-05-09T17:07:57.008Z,0.98
2023-05-09T17:10:42.339Z,1.00
2023-05-09T17:13:28.396Z,0.77
2023-05-09T17:16:14.107Z,1.02
2023-05-09T17:18:59.460Z,1.00
2023-05-09T17:21:45.003Z,1.65
2023-05-09T17:24:30.446Z,1.90
2023-05-09T17:27:15.880Z,0.90
2023-05-09T17:30:01.150Z,0.80
2023-05-09T17:32:46.870Z,1.00
2023-05-09T17:35:32.535Z,0.98
2023-05-09T17:38:18.061Z,0.80
2023-05-09T17:41:04.219Z,1.50
2023-05-09T17:43:51.969Z,1.02
2023-05-09T17:46:37.290Z,1.45
2023-05-09T17:49:22.661Z,0.95
2023-05-09T17:52:08.023Z,0.60
2023-05-09T17:54:53.612Z,0.65
2023-05-09T17:57:38.906Z,0.95
2023-05-09T18:00:24.630Z,0.52
2023-05-09T18:03:10.372Z,0.65
2023-05-09T18:05:56.094Z,0.85
2023-05-09T18:08:41.837Z,0.70
2023-05-09T18:11:27.330Z,0.70
2023-05-09T18:14:13.093Z,0.70
2023-05-09T18:16:58.726Z,0.70
2023-05-09T18:19:44.023Z,0.50
2023-05-09T18:22:29.330Z,0.60
2023-05-09T18:25:14.707Z,0.45
2023-05-09T18:28:00.191Z,0.60
2023-05-09T18:30:45.652Z,0.52
2023-05-09T18:33:31.053Z,1.20
2023-05-09T18:36:16.319Z,0.60
2023-05-09T18:39:02.094Z,1.08
2023-05-09T18:41:47.857Z,0.77
2023-05-09T18:44:33.756Z,0.60
2023-05-09T18:47:19.339Z,0.85
2023-05-09T18:50:07.108Z,1.10
2023-05-09T18:52:52.374Z,0.82
2023-05-09T18:55:37.686Z,0.73
2023-05-09T18:58:24.703Z,0.80
2023-05-09T19:01:11.671Z,0.60
2023-05-09T19:03:57.589Z,1.23
2023-05-09T19:06:44.193Z,0.65
2023-05-09T19:09:30.722Z,0.82
2023-05-09T19:12:17.726Z,1.48
2023-05-09T19:15:03.850Z,1.08
2023-05-09T19:17:49.635Z,1.25
2023-05-09T19:20:35.191Z,1.00
2023-05-09T19:23:21.231Z,0.98
2023-05-09T19:26:06.535Z,0.77
2023-05-09T19:28:51.906Z,0.73
2023-05-09T19:31:37.554Z,1.10
2023-05-09T19:34:23.169Z,0.82
2023-05-09T19:37:08.596Z,0.90
2023-05-09T19:39:53.855Z,1.75
2023-05-09T19:42:39.622Z,1.30
2023-05-09T19:45:24.759Z,0.80
2023-05-09T19:48:15.570Z,0.70
2023-05-09T19:51:01.020Z,0.90
2023-05-09T19:53:47.026Z,0.98
2023-05-09T19:56:32.480Z,0.85
2023-05-09T19:59:18.260Z,1.15
2023-05-09T20:02:03.899Z,1.08
2023-05-09T20:04:50.182Z,0.88
2023-05-09T20:07:35.967Z,1.13
2023-05-09T20:10:21.533Z,1.00
2023-05-09T20:13:07.153Z,0.80
2023-05-09T20:15:52.592Z,1.55
2023-05-09T20:18:38.082Z,1.08
2023-05-09T20:21:23.480Z,1.10
2023-05-09T20:24:09.064Z,0.90
2023-05-09T20:26:57.397Z,0.82
2023-05-09T20:29:43.138Z,0.90
2023-05-09T20:32:28.452Z,0.98
2023-05-09T20:35:13.846Z,0.80
2023-05-09T20:37:59.183Z,0.80
2023-05-09T20:40:44.898Z,1.05
2023-05-09T20:43:30.685Z,0.75
2023-05-09T20:46:16.214Z,1.42
2023-05-09T20:49:03.282Z,1.02
2023-05-09T20:51:48.627Z,1.70
2023-05-09T20:54:33.940Z,1.80
2023-05-09T20:57:19.291Z,1.67
2023-05-09T21:00:07.538Z,2.03
2023-05-09T21:02:57.528Z,1.58
2023-05-09T21:05:44.555Z,1.45
2023-05-09T21:08:29.822Z,1.33
2023-05-09T21:11:15.375Z,1.38
2023-05-09T21:14:01.117Z,1.70
2023-05-09T21:16:46.823Z,1.58
2023-05-09T21:19:32.393Z,1.02
2023-05-09T21:22:17.956Z,1.60
2023-05-09T21:25:03.728Z,1.20
2023-05-09T21:27:49.409Z,1.33
2023-05-09T21:30:34.644Z,1.30
2023-05-09T21:33:20.862Z,1.63
2023-05-09T21:36:07.766Z,1.25
2023-05-09T21:38:53.251Z,1.75
2023-05-09T21:41:39.993Z,2.20
2023-05-09T21:44:25.530Z,1.80
2023-05-09T21:47:11.760Z,1.20
2023-05-09T21:49:57.148Z,2.17
2023-05-09T21:52:42.577Z,1.63
2023-05-09T21:55:27.937Z,1.13
2023-05-09T21:58:13.261Z,1.60
2023-05-09T22:00:58.596Z,1.65
2023-05-09T22:03:43.963Z,1.38
2023-05-09T22:06:29.672Z,1.63
2023-05-09T22:09:15.329Z,2.15
2023-05-09T22:12:00.726Z,1.52
2023-05-09T22:14:55.770Z,1.92
2023-05-09T22:17:41.950Z,1.20
2023-05-09T22:20:27.416Z,1.77
2023-05-09T22:23:13.196Z,1.02
2023-05-09T22:25:58.846Z,1.55
2023-05-09T22:28:44.081Z,1.40
2023-05-09T22:31:29.434Z,1.25
2023-05-09T22:34:15.075Z,1.45
2023-05-09T22:37:01.281Z,1.33
2023-05-09T22:39:47.374Z,1.42
2023-05-09T22:42:34.821Z,1.10
2023-05-09T22:45:21.021Z,2.13
2023-05-09T22:48:07.063Z,1.25
2023-05-09T22:50:52.440Z,1.63
2023-05-09T22:53:38.027Z,1.50
2023-05-09T22:56:23.517Z,1.42
2023-05-09T22:59:08.862Z,1.15
2023-05-09T23:01:54.484Z,1.35
2023-05-09T23:04:40.111Z,1.55
2023-05-09T23:07:25.933Z,2.08
2023-05-09T23:10:11.709Z,1.52
2023-05-09T23:12:56.890Z,1.70
2023-05-09T23:15:42.564Z,1.85
2023-05-09T23:18:28.715Z,2.28
2023-05-09T23:21:14.046Z,2.90
2023-05-09T23:23:59.411Z,4.68
2023-05-09T23:26:45.144Z,5.90
2023-05-09T23:29:30.552Z,6.75
2023-05-09T23:32:15.922Z,5.97
2023-05-09T23:35:01.282Z,6.45
2023-05-09T23:37:47.006Z,5.82
2023-05-09T23:40:32.334Z,4.80
2023-05-09T23:43:18.192Z,4.00
2023-05-09T23:46:04.337Z,2.97
2023-05-09T23:48:50.070Z,2.90
2023-05-09T23:51:36.380Z,2.50
2023-05-09T23:54:21.742Z,2.22
2023-05-09T23:57:07.296Z,3.25
2023-05-09T23:59:52.868Z,2.15
